Time;durP1;ratioP1;P1;durP2;ratioP2;P2;SDS_P1;SDS_P2;PMS_P1;PMS_P2;Temp;Humidity;BMP_temperature;BMP_pressure;BME280_temperature;BME280_humidity;BME280_pressure;Samples;Min_cycle;Max_cycle;Signal;HPM_P1;HPM_P2
2021/05/15 00:01:27;;;;;;;0.50;0.50;;;8.70;99.90;;;;;;6218736;28;20327;-70
2021/05/15 00:04:28;;;;;;;0.70;0.70;;;8.70;99.90;;;;;;6233131;28;20282;-70
2021/05/15 00:07:29;;;;;;;1.53;0.50;;;8.70;99.90;;;;;;6233072;28;20227;-70
2021/05/15 00:10:31;;;;;;;1.47;0.50;;;8.70;99.90;;;;;;6232608;28;20238;-70
2021/05/15 00:13:33;;;;;;;1.33;0.67;;;8.70;99.90;;;;;;6235025;28;20229;-70
2021/05/15 00:16:34;;;;;;;0.90;0.80;;;8.70;99.90;;;;;;6236630;28;20582;-70
2021/05/15 00:19:37;;;;;;;0.90;0.60;;;8.80;99.90;;;;;;6247012;28;20224;-70
2021/05/15 00:22:39;;;;;;;0.63;0.53;;;8.80;99.90;;;;;;6263323;28;20601;-70
2021/05/15 00:25:40;;;;;;;0.60;0.60;;;8.80;99.90;;;;;;6265348;28;20228;-70
2021/05/15 00:28:42;;;;;;;0.73;0.50;;;8.80;99.90;;;;;;6265849;28;20285;-70
2021/05/15 00:31:43;;;;;;;0.97;0.70;;;8.80;99.90;;;;;;6266874;28;20708;-70
2021/05/15 00:34:44;;;;;;;0.80;0.60;;;8.80;99.90;;;;;;6266229;28;20275;-70
2021/05/15 00:37:45;;;;;;;0.67;0.60;;;8.80;99.90;;;;;;6265606;28;20230;-70
2021/05/15 00:40:46;;;;;;;1.00;0.70;;;8.80;99.90;;;;;;6266389;28;20233;-70
2021/05/15 00:47:19;;;;;;;0.57;0.57;;;8.90;99.90;;;;;;6248905;28;20220;-70
2021/05/15 00:50:21;;;;;;;0.60;0.60;;;8.90;99.90;;;;;;6267299;28;20261;-70
2021/05/15 00:53:22;;;;;;;1.33;0.70;;;8.90;99.90;;;;;;6267777;28;20292;-70
2021/05/15 00:56:23;;;;;;;1.30;0.53;;;8.80;99.90;;;;;;6262789;28;20230;-70
2021/05/15 00:59:24;;;;;;;2.07;0.70;;;8.90;99.90;;;;;;6265982;28;20217;-70
2021/05/15 01:02:25;;;;;;;2.17;0.70;;;8.90;99.90;;;;;;6269489;28;20233;-70
2021/05/15 01:05:26;;;;;;;0.50;0.50;;;8.90;99.90;;;;;;6267931;28;20233;-70
2021/05/15 01:08:27;;;;;;;0.67;0.50;;;9.00;99.90;;;;;;6265719;28;20727;-70
2021/05/15 01:11:29;;;;;;;0.90;0.70;;;9.10;99.90;;;;;;6240353;28;20247;-70
2021/05/15 01:14:31;;;;;;;0.60;0.60;;;9.10;99.90;;;;;;6255796;28;20217;-70
2021/05/15 01:17:32;;;;;;;1.27;0.50;;;9.10;99.90;;;;;;6236450;28;20222;-70
2021/05/15 01:20:33;;;;;;;0.70;0.60;;;9.10;99.90;;;;;;6239870;28;20250;-70
2021/05/15 01:23:34;;;;;;;0.67;0.60;;;9.00;99.90;;;;;;6237880;28;20325;-70
2021/05/15 01:26:35;;;;;;;0.70;0.63;;;9.00;99.90;;;;;;6239407;28;20217;-70
2021/05/15 01:29:36;;;;;;;1.57;0.50;;;9.00;99.90;;;;;;6239393;28;20234;-70
2021/05/15 01:32:40;;;;;;;0.43;0.43;;;9.10;99.90;;;;;;6241086;28;20218;-70
2021/05/15 01:35:41;;;;;;;0.93;0.63;;;9.00;99.90;;;;;;6238020;28;20232;-70
2021/05/15 01:38:43;;;;;;;0.63;0.60;;;9.10;99.90;;;;;;6239852;28;20230;-70
2021/05/15 01:41:44;;;;;;;2.00;0.70;;;9.10;99.90;;;;;;6238329;28;20550;-70
2021/05/15 01:44:45;;;;;;;1.40;0.70;;;9.10;99.90;;;;;;6237945;28;20219;-70
2021/05/15 01:47:46;;;;;;;0.97;0.70;;;9.20;99.90;;;;;;6237619;28;20216;-70
2021/05/15 01:51:10;;;;;;;0.63;0.60;;;9.10;99.90;;;;;;6238271;28;20684;-70
2021/05/15 01:54:11;;;;;;;0.93;0.60;;;9.10;99.90;;;;;;6238504;28;20230;-70
2021/05/15 01:57:12;;;;;;;0.63;0.60;;;9.20;99.90;;;;;;6237507;28;20656;-70
2021/05/15 02:00:14;;;;;;;0.57;0.57;;;9.20;99.90;;;;;;6237287;28;20191;-70
2021/05/15 02:03:16;;;;;;;0.70;0.60;;;9.10;99.90;;;;;;6238733;28;20227;-70
2021/05/15 02:06:17;;;;;;;0.90;0.50;;;9.10;99.90;;;;;;6220048;28;20651;-70
2021/05/15 02:09:18;;;;;;;0.97;0.60;;;9.20;99.90;;;;;;6218733;28;20207;-70
2021/05/15 02:12:19;;;;;;;1.80;0.60;;;9.20;99.90;;;;;;6235112;28;20207;-70
2021/05/15 02:15:20;;;;;;;0.40;0.40;;;9.20;99.90;;;;;;6237286;28;20221;-70
2021/05/15 02:18:22;;;;;;;0.63;0.60;;;9.20;99.90;;;;;;6230308;28;20230;-70
2021/05/15 02:21:23;;;;;;;0.73;0.60;;;9.10;99.90;;;;;;6237288;28;20237;-70
2021/05/15 02:24:24;;;;;;;0.97;0.70;;;9.10;99.90;;;;;;6238032;28;20219;-70
2021/05/15 02:27:25;;;;;;;0.60;0.60;;;9.10;99.90;;;;;;6240834;28;20240;-70
2021/05/15 02:30:28;;;;;;;0.50;0.50;;;9.10;99.90;;;;;;6238483;28;20301;-71
2021/05/15 02:33:29;;;;;;;0.50;0.50;;;9.10;99.90;;;;;;6237487;28;20308;-70
2021/05/15 02:36:30;;;;;;;0.50;0.50;;;9.00;99.90;;;;;;6240223;28;20279;-70
2021/05/15 02:39:31;;;;;;;0.97;0.63;;;9.10;99.90;;;;;;6235253;28;20223;-70
2021/05/15 02:42:32;;;;;;;0.70;0.70;;;9.10;99.90;;;;;;6237316;28;20251;-70
2021/05/15 02:45:35;;;;;;;0.43;0.43;;;9.10;99.90;;;;;;6236081;28;20580;-70
2021/05/15 02:48:36;;;;;;;0.70;0.70;;;9.10;99.90;;;;;;6235798;28;20242;-70
2021/05/15 02:51:37;;;;;;;1.33;0.80;;;9.10;99.90;;;;;;6235044;28;20212;-70
2021/05/15 02:54:38;;;;;;;0.70;0.70;;;9.00;99.90;;;;;;6236849;28;20218;-70
2021/05/15 02:57:41;;;;;;;0.50;0.50;;;9.00;99.90;;;;;;6237094;28;20223;-70
2021/05/15 03:00:43;;;;;;;0.50;0.50;;;9.00;99.90;;;;;;6233879;28;20719;-70
2021/05/15 03:03:44;;;;;;;0.50;0.47;;;9.00;99.90;;;;;;6235092;28;20232;-70
2021/05/15 03:06:45;;;;;;;1.03;0.50;;;9.00;99.90;;;;;;6236423;28;20216;-70
2021/05/15 03:09:46;;;;;;;0.50;0.50;;;9.00;99.90;;;;;;6226320;28;20223;-70
2021/05/15 03:12:47;;;;;;;0.90;0.80;;;9.00;99.90;;;;;;6209900;28;20218;-70
2021/05/15 03:15:48;;;;;;;1.53;0.57;;;9.00;99.90;;;;;;6208654;28;20223;-70
2021/05/15 03:18:49;;;;;;;0.70;0.50;;;9.00;99.90;;;;;;6226278;28;20275;-70
2021/05/15 03:21:50;;;;;;;0.40;0.40;;;9.00;99.90;;;;;;6248437;28;20226;-70
2021/05/15 03:24:51;;;;;;;2.00;0.50;;;9.00;99.90;;;;;;6250143;28;20621;-70
2021/05/15 03:27:52;;;;;;;0.60;0.60;;;9.00;99.90;;;;;;6251570;28;20283;-70
2021/05/15 03:30:53;;;;;;;1.13;0.60;;;9.00;99.90;;;;;;6238890;28;20275;-70
2021/05/15 03:33:54;;;;;;;0.67;0.60;;;9.10;99.90;;;;;;6239189;28;20213;-70
2021/05/15 03:36:55;;;;;;;0.70;0.70;;;9.10;99.90;;;;;;6252702;28;20230;-71
2021/05/15 03:39:57;;;;;;;0.67;0.57;;;9.20;99.90;;;;;;6252757;28;20225;-70
2021/05/15 03:42:58;;;;;;;1.27;0.50;;;9.10;99.90;;;;;;6252489;28;20570;-70
2021/05/15 03:45:59;;;;;;;0.50;0.50;;;9.20;99.90;;;;;;6239330;28;20634;-70
2021/05/15 03:49:00;;;;;;;0.50;0.50;;;9.20;99.90;;;;;;6238475;28;20213;-71
2021/05/15 03:52:01;;;;;;;0.50;0.50;;;9.20;99.90;;;;;;6240490;28;20247;-71
2021/05/15 03:55:04;;;;;;;0.67;0.67;;;9.30;99.90;;;;;;6238094;28;20608;-71
2021/05/15 03:58:05;;;;;;;0.53;0.53;;;9.30;99.90;;;;;;6239840;28;20354;-71
2021/05/15 04:01:06;;;;;;;0.70;0.70;;;9.40;99.90;;;;;;6237311;28;20257;-71
2021/05/15 04:04:07;;;;;;;0.63;0.53;;;9.40;99.90;;;;;;6240058;28;20225;-71
2021/05/15 04:07:08;;;;;;;0.47;0.47;;;9.50;99.90;;;;;;6241576;28;20557;-70
2021/05/15 04:10:09;;;;;;;1.00;0.80;;;9.50;99.90;;;;;;6243077;28;20249;-70
2021/05/15 04:16:44;;;;;;;1.00;0.63;;;9.60;99.90;;;;;;6235707;28;20223;-70
2021/05/15 04:19:46;;;;;;;0.50;0.50;;;9.70;99.90;;;;;;6233050;28;20225;-70
2021/05/15 04:22:47;;;;;;;0.57;0.57;;;9.70;99.90;;;;;;6216507;28;20231;-70
2021/05/15 04:25:49;;;;;;;1.30;0.70;;;9.70;99.90;;;;;;6197407;28;20228;-70
2021/05/15 04:28:50;;;;;;;0.93;0.50;;;9.70;99.90;;;;;;6214334;28;20216;-70
2021/05/15 04:31:56;;;;;;;0.60;0.60;;;9.80;99.90;;;;;;6195504;28;20220;-70
2021/05/15 04:34:57;;;;;;;1.17;0.80;;;9.80;99.90;;;;;;6214712;28;20231;-70
2021/05/15 04:38:06;;;;;;;1.83;0.50;;;9.90;99.90;;;;;;6213470;28;20231;-70
2021/05/15 04:41:07;;;;;;;0.63;0.60;;;10.00;99.90;;;;;;6199413;28;20225;-70
2021/05/15 04:44:08;;;;;;;0.60;0.60;;;10.00;99.90;;;;;;6217238;28;20403;-71
2021/05/15 04:47:09;;;;;;;1.97;0.70;;;10.10;99.90;;;;;;6218659;28;20217;-70
2021/05/15 04:50:11;;;;;;;1.67;0.70;;;10.10;99.90;;;;;;6238450;28;20214;-70
2021/05/15 04:53:12;;;;;;;0.67;0.67;;;10.20;99.90;;;;;;6261811;28;20227;-70
2021/05/15 04:56:14;;;;;;;0.50;0.50;;;10.20;99.90;;;;;;6262274;28;20213;-70
2021/05/15 04:59:15;;;;;;;0.80;0.70;;;10.30;99.90;;;;;;6261873;28;20253;-70
2021/05/15 05:02:17;;;;;;;0.73;0.70;;;10.40;99.90;;;;;;6260119;28;20322;-70
2021/05/15 05:05:18;;;;;;;0.73;0.60;;;10.40;99.90;;;;;;6264112;28;20215;-70
2021/05/15 05:08:19;;;;;;;0.63;0.63;;;10.50;99.90;;;;;;6262561;28;20222;-70
2021/05/15 05:11:20;;;;;;;1.50;0.67;;;10.60;99.90;;;;;;6262989;28;20220;-70
2021/05/15 05:14:21;;;;;;;0.50;0.50;;;10.60;99.90;;;;;;6265924;28;20301;-70
2021/05/15 05:17:22;;;;;;;0.60;0.60;;;10.70;99.90;;;;;;6264363;28;20305;-70
2021/05/15 05:20:24;;;;;;;1.97;0.70;;;10.80;99.90;;;;;;6250932;28;20230;-70
2021/05/15 05:23:25;;;;;;;1.67;0.60;;;10.90;99.90;;;;;;6236772;28;20281;-70
2021/05/15 05:26:26;;;;;;;1.33;0.60;;;11.00;99.90;;;;;;6219771;28;20230;-70
2021/05/15 05:29:28;;;;;;;1.67;0.70;;;11.00;99.90;;;;;;6241246;28;20227;-70
2021/05/15 05:32:29;;;;;;;0.50;0.43;;;11.10;99.90;;;;;;6240902;28;20301;-70
2021/05/15 05:35:34;;;;;;;1.90;0.60;;;11.20;99.90;;;;;;6238234;28;20227;-70
2021/05/15 05:38:35;;;;;;;1.70;0.57;;;11.30;99.90;;;;;;6224372;28;20456;-70
2021/05/15 05:41:37;;;;;;;0.50;0.50;;;11.30;99.90;;;;;;6228009;28;20766;-70
2021/05/15 05:44:39;;;;;;;0.80;0.80;;;11.40;99.90;;;;;;6218422;28;20716;-70
2021/05/15 05:47:41;;;;;;;0.60;0.60;;;11.50;99.90;;;;;;6232739;28;20693;-70
2021/05/15 05:50:42;;;;;;;0.57;0.53;;;11.60;99.90;;;;;;6246650;28;20784;-70
2021/05/15 05:53:43;;;;;;;0.77;0.50;;;11.70;99.90;;;;;;6255756;28;20225;-70
2021/05/15 05:56:44;;;;;;;0.57;0.57;;;11.80;99.90;;;;;;6242575;28;20310;-70
2021/05/15 05:59:45;;;;;;;0.63;0.50;;;11.90;99.90;;;;;;6239026;28;20220;-70
2021/05/15 06:02:46;;;;;;;0.40;0.40;;;12.00;99.90;;;;;;6253798;28;20270;-70
2021/05/15 06:05:48;;;;;;;1.57;0.60;;;12.20;99.90;;;;;;6219950;28;20229;-70
2021/05/15 06:08:50;;;;;;;0.50;0.50;;;12.40;99.90;;;;;;6235412;28;20228;-71
2021/05/15 06:11:51;;;;;;;0.50;0.50;;;12.50;99.90;;;;;;6235527;28;20246;-71
2021/05/15 06:14:52;;;;;;;1.17;0.50;;;12.60;99.90;;;;;;6238437;28;20773;-71
2021/05/15 06:17:53;;;;;;;0.50;0.50;;;12.80;99.90;;;;;;6238281;28;20254;-70
2021/05/15 06:20:54;;;;;;;0.50;0.50;;;12.90;99.90;;;;;;6228379;28;20283;-70
2021/05/15 06:23:55;;;;;;;0.40;0.40;;;13.00;99.90;;;;;;6241048;28;20227;-70
2021/05/15 06:26:56;;;;;;;0.67;0.50;;;13.20;99.90;;;;;;6243482;28;20222;-70
2021/05/15 06:29:57;;;;;;;0.87;0.60;;;13.30;99.90;;;;;;6239641;28;20243;-70
2021/05/15 06:32:58;;;;;;;2.50;0.60;;;13.50;99.90;;;;;;6239591;28;20221;-70
2021/05/15 06:36:00;;;;;;;1.90;0.60;;;13.60;99.90;;;;;;6236578;28;20224;-70
2021/05/15 06:39:01;;;;;;;0.50;0.40;;;13.70;99.90;;;;;;6237903;28;20247;-70
2021/05/15 06:42:02;;;;;;;0.60;0.60;;;13.90;99.90;;;;;;6238167;28;20264;-70
2021/05/15 06:45:05;;;;;;;0.60;0.60;;;14.10;99.90;;;;;;6237697;28;20218;-70
2021/05/15 06:48:06;;;;;;;0.90;0.50;;;14.20;99.90;;;;;;6237205;28;20204;-70
2021/05/15 06:51:07;;;;;;;1.13;0.60;;;14.40;99.90;;;;;;6238576;28;20217;-70
2021/05/15 06:54:08;;;;;;;0.33;0.33;;;14.60;99.90;;;;;;6239119;28;20200;-70
2021/05/15 06:57:09;;;;;;;1.13;0.40;;;14.70;99.90;;;;;;6237692;28;20200;-70
2021/05/15 07:00:11;;;;;;;0.50;0.50;;;14.90;99.90;;;;;;6240069;28;20203;-70
2021/05/15 07:03:12;;;;;;;0.57;0.50;;;15.00;99.90;;;;;;6239984;28;20242;-70
2021/05/15 07:06:13;;;;;;;0.53;0.53;;;15.10;99.90;;;;;;6224510;28;20198;-70
2021/05/15 07:09:14;;;;;;;2.83;0.63;;;15.10;99.90;;;;;;6237380;28;20203;-71
2021/05/15 07:12:16;;;;;;;2.00;0.60;;;15.10;99.90;;;;;;6236738;28;20530;-70
2021/05/15 07:15:17;;;;;;;1.83;0.73;;;15.20;99.90;;;;;;6219636;28;20201;-70
2021/05/15 07:18:19;;;;;;;0.50;0.50;;;15.30;99.90;;;;;;6215453;28;20207;-70
2021/05/15 07:21:20;;;;;;;0.70;0.50;;;15.50;99.90;;;;;;6235662;28;20763;-70
2021/05/15 07:24:22;;;;;;;0.57;0.57;;;15.70;99.90;;;;;;6238564;28;20222;-70
2021/05/15 07:27:23;;;;;;;0.90;0.70;;;15.90;99.90;;;;;;6236460;28;20230;-70
2021/05/15 07:30:24;;;;;;;1.20;0.80;;;16.20;99.90;;;;;;6252546;28;20231;-70
2021/05/15 07:33:25;;;;;;;1.70;0.60;;;16.20;99.90;;;;;;6238076;28;20242;-70
2021/05/15 07:36:27;;;;;;;1.90;0.40;;;16.30;99.90;;;;;;6239828;28;20224;-70
2021/05/15 07:39:28;;;;;;;1.33;0.43;;;16.40;99.90;;;;;;6239054;28;20238;-70
2021/05/15 07:42:29;;;;;;;0.93;0.60;;;16.50;99.90;;;;;;6239556;28;20273;-70
2021/05/15 07:45:32;;;;;;;0.50;0.50;;;16.70;99.90;;;;;;6241372;28;20270;-70
2021/05/15 07:48:40;;;;;;;0.60;0.60;;;16.90;99.90;;;;;;6240006;28;20322;-70
2021/05/15 07:51:41;;;;;;;0.40;0.40;;;17.10;99.90;;;;;;6213641;28;20228;-70
2021/05/15 07:54:42;;;;;;;0.63;0.60;;;17.20;99.90;;;;;;6231929;28;20263;-70
2021/05/15 07:57:43;;;;;;;0.63;0.63;;;17.30;99.90;;;;;;6214333;28;20223;-70
2021/05/15 08:00:45;;;;;;;1.53;0.80;;;17.30;99.90;;;;;;6215640;28;20220;-70
2021/05/15 08:03:46;;;;;;;1.57;0.80;;;17.30;99.90;;;;;;6230551;28;20728;-71
2021/05/15 08:06:50;;;;;;;32.93;3.17;;;17.20;99.90;;;;;;6227477;28;20220;-71
2021/05/15 08:09:51;;;;;;;2.30;0.90;;;17.10;99.90;;;;;;6211927;28;20275;-70
2021/05/15 08:12:52;;;;;;;1.20;0.90;;;17.00;99.90;;;;;;6212384;28;20225;-71
2021/05/15 08:15:53;;;;;;;2.33;0.70;;;16.80;99.90;;;;;;6213715;28;20224;-70
2021/05/15 08:18:56;;;;;;;2.63;0.60;;;16.80;99.90;;;;;;6236601;28;20223;-70
2021/05/15 08:21:57;;;;;;;1.30;0.60;;;16.80;99.90;;;;;;6235747;28;20319;-70
2021/05/15 08:24:59;;;;;;;0.83;0.70;;;16.90;99.90;;;;;;6234442;28;20684;-70
2021/05/15 08:28:04;;;;;;;0.50;0.50;;;17.00;99.90;;;;;;6234803;28;20236;-70
2021/05/15 08:31:08;;;;;;;1.47;0.90;;;17.20;99.90;;;;;;6236881;28;20239;-70
2021/05/15 08:34:09;;;;;;;1.20;0.93;;;17.30;99.90;;;;;;6233283;28;20227;-70
2021/05/15 08:37:10;;;;;;;1.20;1.00;;;17.40;99.90;;;;;;6236769;28;20263;-70
2021/05/15 08:40:12;;;;;;;0.80;0.80;;;17.50;99.90;;;;;;6237537;28;20674;-71
2021/05/15 08:43:15;;;;;;;0.60;0.60;;;17.60;99.90;;;;;;6233512;28;20286;-71
2021/05/15 08:46:16;;;;;;;0.83;0.80;;;17.70;99.90;;;;;;6237391;28;20232;-71
2021/05/15 08:49:22;;;;;;;1.20;0.60;;;17.90;99.90;;;;;;6216710;28;20230;-71
2021/05/15 08:52:23;;;;;;;1.00;0.80;;;18.00;99.90;;;;;;6233786;28;20318;-71
2021/05/15 08:55:28;;;;;;;1.70;0.67;;;18.00;98.20;;;;;;6233607;28;20231;-70
2021/05/15 08:58:29;;;;;;;2.30;1.23;;;17.90;98.00;;;;;;6236694;28;20228;-70
2021/05/15 09:01:30;;;;;;;0.80;0.70;;;17.70;97.00;;;;;;6240732;28;20242;-71
2021/05/15 09:04:31;;;;;;;1.83;0.97;;;17.60;97.70;;;;;;6236568;28;20354;-70
2021/05/15 09:07:34;;;;;;;1.13;0.60;;;17.40;97.90;;;;;;6216367;28;20220;-70
2021/05/15 09:10:39;;;;;;;1.90;0.97;;;17.20;99.30;;;;;;6218770;28;20239;-70
2021/05/15 09:13:55;;;;;;;1.27;0.80;;;17.10;99.30;;;;;;6211560;28;20228;-70
2021/05/15 09:16:59;;;;;;;0.60;0.60;;;16.90;99.40;;;;;;6209244;28;20228;-70
2021/05/15 09:20:03;;;;;;;1.60;1.07;;;16.90;99.90;;;;;;6236171;28;20226;-70
2021/05/15 09:23:14;;;;;;;1.50;1.00;;;17.00;99.90;;;;;;6232595;28;20911;-70
2021/05/15 09:26:23;;;;;;;1.50;1.30;;;17.00;99.90;;;;;;6231679;28;20239;-70
2021/05/15 09:29:26;;;;;;;1.63;1.10;;;16.90;99.90;;;;;;6234028;28;20639;-70
2021/05/15 09:32:33;;;;;;;1.73;1.10;;;16.90;99.90;;;;;;6233247;28;20285;-70
2021/05/15 09:35:36;;;;;;;1.17;0.80;;;16.80;99.80;;;;;;6215638;28;20267;-70
2021/05/15 09:38:38;;;;;;;0.80;0.80;;;16.80;99.90;;;;;;6234343;28;20289;-70
2021/05/15 09:41:44;;;;;;;0.80;0.80;;;16.80;99.90;;;;;;6221404;28;20234;-69
2021/05/15 09:44:47;;;;;;;1.20;1.07;;;16.90;99.90;;;;;;6209231;28;20232;-70
2021/05/15 09:47:54;;;;;;;1.87;1.20;;;16.90;99.90;;;;;;6232062;28;20315;-70
2021/05/15 09:50:56;;;;;;;2.30;1.50;;;16.70;99.90;;;;;;6235373;28;20255;-70
2021/05/15 09:54:22;;;;;;;2.47;1.40;;;16.60;99.90;;;;;;6233267;28;20286;-70
2021/05/15 09:57:25;;;;;;;3.27;1.60;;;16.40;99.90;;;;;;6236746;28;20355;-71
2021/05/15 10:00:39;;;;;;;3.53;1.40;;;16.30;99.90;;;;;;6234311;28;20232;-70
2021/05/15 10:03:41;;;;;;;1.67;1.50;;;16.20;99.90;;;;;;6234972;28;20309;-71
2021/05/15 10:06:50;;;;;;;1.37;1.27;;;16.20;99.90;;;;;;6232736;28;20242;-71
2021/05/15 10:09:52;;;;;;;2.20;1.20;;;16.10;99.90;;;;;;6235589;28;20266;-70
2021/05/15 10:12:55;;;;;;;2.20;1.50;;;16.10;99.90;;;;;;6226406;28;20322;-70
2021/05/15 10:15:58;;;;;;;1.63;1.50;;;16.10;99.90;;;;;;6207985;28;20231;-70
2021/05/15 10:19:01;;;;;;;2.57;0.97;;;16.10;99.90;;;;;;6212106;28;20232;-70
2021/05/15 10:22:03;;;;;;;0.87;0.87;;;16.20;99.90;;;;;;6234233;28;20231;-70
2021/05/15 10:25:14;;;;;;;1.00;1.00;;;16.20;99.90;;;;;;6236671;28;20234;-70
2021/05/15 10:28:28;;;;;;;0.60;0.60;;;16.30;99.90;;;;;;6230177;28;20716;-70
2021/05/15 10:31:36;;;;;;;0.87;0.60;;;16.30;99.90;;;;;;6231907;28;20224;-71
2021/05/15 10:34:39;;;;;;;0.80;0.80;;;16.30;99.90;;;;;;6232063;28;20728;-70
2021/05/15 10:37:42;;;;;;;0.87;0.53;;;16.30;99.90;;;;;;6235297;28;20366;-70
2021/05/15 10:40:50;;;;;;;0.70;0.50;;;16.30;99.90;;;;;;6231854;28;20231;-70
2021/05/15 10:43:56;;;;;;;0.60;0.60;;;16.40;99.90;;;;;;6231714;28;20759;-70
2021/05/15 10:46:59;;;;;;;0.90;0.50;;;16.50;99.90;;;;;;6231941;28;20231;-70
2021/05/15 10:50:21;;;;;;;0.50;0.50;;;16.50;99.90;;;;;;6242216;28;20706;-70
2021/05/15 10:53:27;;;;;;;1.00;0.50;;;16.60;99.90;;;;;;6254035;28;20231;-70
2021/05/15 10:56:30;;;;;;;0.60;0.60;;;16.60;99.90;;;;;;6257013;28;20230;-70
2021/05/15 10:59:34;;;;;;;0.60;0.60;;;16.60;99.90;;;;;;6257828;28;20241;-70
2021/05/15 11:02:39;;;;;;;0.73;0.57;;;16.60;99.90;;;;;;6257562;28;20230;-70
2021/05/15 11:05:46;;;;;;;1.13;0.40;;;16.80;99.90;;;;;;6259839;28;20231;-71
2021/05/15 11:09:04;;;;;;;2.00;0.60;;;17.10;99.90;;;;;;6258871;28;20255;-71
2021/05/15 11:12:08;;;;;;;0.40;0.40;;;17.20;99.90;;;;;;6235389;28;20232;-71
2021/05/15 11:15:13;;;;;;;0.50;0.50;;;17.40;99.90;;;;;;6238160;28;20204;-71
2021/05/15 11:18:28;;;;;;;1.00;0.60;;;17.70;99.90;;;;;;6237263;28;20236;-71
2021/05/15 11:21:40;;;;;;;0.73;0.73;;;17.90;99.90;;;;;;6236010;28;20243;-71
2021/05/15 11:24:51;;;;;;;2.13;0.90;;;17.70;99.90;;;;;;6241924;28;20290;-71
2021/05/15 11:28:08;;;;;;;1.30;0.80;;;17.30;99.90;;;;;;6237309;28;20243;-71
2021/05/15 11:31:12;;;;;;;0.77;0.77;;;17.20;99.90;;;;;;6238046;28;20787;-71
2021/05/15 11:34:17;;;;;;;1.97;1.33;;;17.10;99.90;;;;;;6231411;28;20235;-70
2021/05/15 11:37:19;;;;;;;1.00;0.90;;;17.10;99.90;;;;;;6231230;28;20720;-70
2021/05/15 11:40:22;;;;;;;0.73;0.60;;;17.60;99.90;;;;;;6229595;28;20238;-70
2021/05/15 11:43:36;;;;;;;0.60;0.53;;;18.20;99.90;;;;;;6220049;28;20243;-70
2021/05/15 11:46:45;;;;;;;0.70;0.33;;;19.10;98.70;;;;;;6221999;28;20246;-70
2021/05/15 11:49:55;;;;;;;1.37;0.43;;;19.50;95.20;;;;;;6216362;28;20232;-70
2021/05/15 11:53:02;;;;;;;0.10;0.10;;;20.00;95.20;;;;;;6235664;28;20251;-70
2021/05/15 11:56:12;;;;;;;0.30;0.30;;;20.30;88.70;;;;;;6234622;28;20243;-70
2021/05/15 11:59:19;;;;;;;0.20;0.10;;;20.80;88.00;;;;;;6234657;28;20235;-70
2021/05/15 12:02:23;;;;;;;0.37;0.20;;;21.10;81.00;;;;;;6234218;28;20224;-70
2021/05/15 12:05:26;;;;;;;0.10;0.10;;;21.40;75.40;;;;;;6235954;28;20231;-70
2021/05/15 12:08:31;;;;;;;0.23;0.10;;;21.60;71.30;;;;;;6237188;28;20224;-69
2021/05/15 12:11:33;;;;;;;0.17;0.17;;;21.70;70.20;;;;;;6235289;28;20278;-70
2021/05/15 12:14:42;;;;;;;2.67;0.17;;;21.40;68.50;;;;;;6239286;28;20697;-70
2021/05/15 12:17:44;;;;;;;0.10;0.10;;;21.10;67.80;;;;;;6219557;28;20248;-70
2021/05/15 12:20:50;;;;;;;1.53;0.20;;;21.10;66.60;;;;;;6245950;28;20238;-70
2021/05/15 12:24:00;;;;;;;0.10;0.10;;;21.00;67.40;;;;;;6258948;28;20241;-70
2021/05/15 12:27:10;;;;;;;1.37;0.20;;;20.90;67.30;;;;;;6256075;28;20225;-70
2021/05/15 12:30:13;;;;;;;0.33;0.20;;;20.70;68.80;;;;;;6261119;28;20224;-70
2021/05/15 12:33:25;;;;;;;0.20;0.20;;;20.30;67.90;;;;;;6258143;28;20223;-70
2021/05/15 12:36:32;;;;;;;0.10;0.10;;;20.10;69.90;;;;;;6258092;28;20224;-70
2021/05/15 12:39:35;;;;;;;0.10;0.10;;;20.00;69.10;;;;;;6257885;28;20646;-70
2021/05/15 12:42:38;;;;;;;0.17;0.17;;;20.00;71.00;;;;;;6256597;28;20632;-70
2021/05/15 12:45:42;;;;;;;0.10;0.10;;;19.90;70.90;;;;;;6256111;28;20216;-70
2021/05/15 12:48:56;;;;;;;0.10;0.10;;;19.90;71.30;;;;;;6261243;28;20268;-70
2021/05/15 12:51:58;;;;;;;0.10;0.10;;;19.80;73.70;;;;;;6258912;28;20757;-70
2021/05/15 12:55:09;;;;;;;0.20;0.20;;;19.80;73.40;;;;;;6257977;28;20219;-70
2021/05/15 12:58:12;;;;;;;0.10;0.10;;;19.80;74.60;;;;;;6258476;28;20258;-70
2021/05/15 13:01:15;;;;;;;0.50;0.20;;;19.80;76.00;;;;;;6256759;28;20235;-70
2021/05/15 13:04:27;;;;;;;0.20;0.20;;;20.00;77.80;;;;;;6258401;28;20262;-69
2021/05/15 13:07:37;;;;;;;0.57;0.33;;;20.00;75.80;;;;;;6257761;28;20235;-70
2021/05/15 13:10:40;;;;;;;0.33;0.20;;;20.10;78.50;;;;;;6243248;28;20257;-70
2021/05/15 13:13:44;;;;;;;4.13;0.70;;;20.00;78.60;;;;;;6235359;28;20318;-71
2021/05/15 13:16:46;;;;;;;0.60;0.23;;;19.80;83.20;;;;;;6233885;28;20319;-71
2021/05/15 13:19:49;;;;;;;0.27;0.27;;;19.90;85.90;;;;;;6235040;28;20317;-70
2021/05/15 13:22:51;;;;;;;0.30;0.30;;;20.30;83.30;;;;;;6233895;28;20228;-70
2021/05/15 13:25:53;;;;;;;0.97;0.40;;;21.00;83.60;;;;;;6234742;28;20247;-71
2021/05/15 13:28:56;;;;;;;2.40;0.30;;;21.70;75.50;;;;;;6233618;28;20295;-71
2021/05/15 13:32:01;;;;;;;0.20;0.20;;;22.30;71.10;;;;;;6235265;28;20277;-70
2021/05/15 13:35:06;;;;;;;0.40;0.40;;;22.50;67.30;;;;;;6233449;28;20723;-70
2021/05/15 13:38:09;;;;;;;0.40;0.20;;;22.60;71.40;;;;;;6230707;28;20736;-70
2021/05/15 13:41:12;;;;;;;1.43;0.27;;;23.20;67.20;;;;;;6224165;28;20248;-70
2021/05/15 13:44:14;;;;;;;0.60;0.60;;;24.30;62.40;;;;;;6206557;28;20236;-70
2021/05/15 13:47:16;;;;;;;0.27;0.27;;;25.30;59.70;;;;;;6207599;28;20367;-71
2021/05/15 13:50:20;;;;;;;1.10;0.30;;;25.90;56.20;;;;;;6221931;28;20235;-70
2021/05/15 13:53:23;;;;;;;0.33;0.33;;;26.10;56.50;;;;;;6247161;28;20231;-72
2021/05/15 13:56:26;;;;;;;1.80;0.50;;;26.70;55.10;;;;;;6232740;28;20239;-71
2021/05/15 13:59:29;;;;;;;0.50;0.40;;;26.50;53.80;;;;;;6232723;28;20309;-71
2021/05/15 14:02:31;;;;;;;0.40;0.37;;;25.50;53.60;;;;;;6230229;28;20227;-70
2021/05/15 14:05:33;;;;;;;0.63;0.50;;;24.80;56.10;;;;;;6233727;28;20232;-70
2021/05/15 14:08:36;;;;;;;0.40;0.40;;;24.00;56.20;;;;;;6229876;28;20709;-70
2021/05/15 14:11:38;;;;;;;0.57;0.40;;;23.80;56.80;;;;;;6230890;28;20646;-70
2021/05/15 14:14:41;;;;;;;1.07;0.60;;;23.60;57.90;;;;;;6231482;28;20228;-70
2021/05/15 14:17:43;;;;;;;1.37;0.57;;;23.00;59.00;;;;;;6232011;28;20228;-70
2021/05/15 14:20:45;;;;;;;0.30;0.30;;;22.50;61.50;;;;;;6248636;28;20367;-70
2021/05/15 14:23:48;;;;;;;0.83;0.60;;;22.10;63.90;;;;;;6254613;28;20590;-70
2021/05/15 14:26:51;;;;;;;0.60;0.40;;;21.80;65.90;;;;;;6254949;28;20304;-70
2021/05/15 14:29:54;;;;;;;0.63;0.60;;;21.40;69.20;;;;;;6254963;28;20235;-70
2021/05/15 14:32:56;;;;;;;0.50;0.50;;;21.60;68.10;;;;;;6259663;28;20632;-71
2021/05/15 14:35:59;;;;;;;1.07;0.40;;;22.20;65.90;;;;;;6259803;28;20242;-70
2021/05/15 14:39:02;;;;;;;1.80;0.60;;;22.10;64.40;;;;;;6258307;28;20598;-70
2021/05/15 14:42:05;;;;;;;0.90;0.47;;;22.40;63.60;;;;;;6239139;28;20234;-71
2021/05/15 14:45:07;;;;;;;0.90;0.60;;;22.30;65.20;;;;;;6255051;28;20700;-70
2021/05/15 14:48:10;;;;;;;0.97;0.50;;;23.00;63.00;;;;;;6257125;28;20211;-70
2021/05/15 14:51:13;;;;;;;0.40;0.40;;;23.30;60.00;;;;;;6253738;28;20219;-70
2021/05/15 14:54:15;;;;;;;0.53;0.50;;;23.80;59.60;;;;;;6256237;28;20218;-70
2021/05/15 14:57:18;;;;;;;3.23;1.00;;;23.90;59.00;;;;;;6256064;28;20291;-70
2021/05/15 15:00:20;;;;;;;0.50;0.50;;;23.20;59.60;;;;;;6237726;28;20206;-70
2021/05/15 15:03:24;;;;;;;2.80;0.70;;;22.40;63.60;;;;;;6253841;28;20222;-70
2021/05/15 15:06:27;;;;;;;1.27;0.80;;;22.40;64.80;;;;;;6256143;28;20712;-70
2021/05/15 15:09:47;;;;;;;1.53;0.83;;;21.90;66.50;;;;;;6247846;28;20552;-70
2021/05/15 15:12:50;;;;;;;2.97;0.80;;;21.30;69.90;;;;;;6246286;28;20286;-70
2021/05/15 15:15:52;;;;;;;1.87;0.80;;;20.90;71.80;;;;;;6230324;28;20700;-69
2021/05/15 15:18:55;;;;;;;0.60;0.60;;;20.50;73.60;;;;;;6231581;28;20712;-70
2021/05/15 15:21:57;;;;;;;0.97;0.60;;;20.80;75.60;;;;;;6255468;28;20230;-70
2021/05/15 15:24:59;;;;;;;0.60;0.60;;;21.30;73.30;;;;;;6256073;28;20235;-70
2021/05/15 15:28:03;;;;;;;1.07;0.63;;;21.70;71.60;;;;;;6259231;28;20725;-70
2021/05/15 15:31:06;;;;;;;0.70;0.47;;;21.90;72.00;;;;;;6257448;28;20274;-70
2021/05/15 15:34:08;;;;;;;0.87;0.80;;;23.20;69.20;;;;;;6259944;28;20312;-70
2021/05/15 15:37:11;;;;;;;1.10;0.80;;;24.00;64.70;;;;;;6261638;28;20235;-70
2021/05/15 15:40:13;;;;;;;1.03;0.80;;;23.60;65.30;;;;;;6259517;28;20235;-71
2021/05/15 15:43:16;;;;;;;0.80;0.80;;;23.10;67.70;;;;;;6237105;28;20243;-70
2021/05/15 15:46:18;;;;;;;1.40;1.30;;;22.10;72.70;;;;;;6251957;28;20236;-71
2021/05/15 15:49:37;;;;;;;1.77;1.20;;;21.30;75.90;;;;;;6228972;28;20232;-70
2021/05/15 15:52:40;;;;;;;2.47;1.20;;;20.80;78.70;;;;;;6212270;28;20833;-70
2021/05/15 15:55:42;;;;;;;1.33;1.00;;;20.30;80.50;;;;;;6210737;28;20229;-70
2021/05/15 15:58:45;;;;;;;1.63;1.50;;;19.80;83.70;;;;;;6212905;28;20236;-70
2021/05/15 16:01:48;;;;;;;2.37;1.80;;;19.60;84.80;;;;;;6209723;28;20224;-71
2021/05/15 16:04:51;;;;;;;2.33;1.93;;;19.90;84.60;;;;;;6212148;28;20232;-70